Mountain Village, Alaska
Current Conditions -  °F | °C
As of 1:56 PM on Monday 20 Oct 2014 (Local Time) from PAMO Reporting Station
Overcast Overcast  
Wind Chill: 18°   Ceiling: 1800
Heat Index: 29°   Visibility: 10mi
Dew Point: 25°   Wind: 15mph
Humidity: 85%   Direction: 340°NNW
Pressure: 29.26"   Gusts: 22mph
Location:  62.09°N, 163.73°W
Report Text: PAMO 202156Z AUTO 34013G19KT 10SM FEW011 BKN018 OVC026 M02/M04 A2926 RMK AO2 TSNO T10161038 BKN V SCT SNE24 P0000 SLP795 $
Loading
Personal Weather Stations






























Interactive Weather Map New forecast layout! Learn more

10-Day Weather Forecast

Advertisements
Track Severe Weather on mobile